Time;durP1;ratioP1;P1;durP2;ratioP2;P2;SDS_P1;SDS_P2;PMS_P1;PMS_P2;Temp;Humidity;BMP_temperature;BMP_pressure;BME280_temperature;BME280_humidity;BME280_pressure;Samples;Min_cycle;Max_cycle;Signal;HPM_P1;HPM_P2
2023/03/18 00:00:18;;;;;;;12.43;7.22;;;13.40;36.90;;;;;;5141704;27;20038;-60
2023/03/18 00:02:45;;;;;;;11.35;6.93;;;13.30;43.10;;;;;;5141660;27;20039;-60
2023/03/18 00:05:12;;;;;;;13.90;8.02;;;13.20;47.10;;;;;;5141661;27;20023;-59
2023/03/18 00:07:39;;;;;;;14.68;7.20;;;13.20;47.90;;;;;;5141560;27;20030;-59
2023/03/18 00:10:06;;;;;;;10.85;7.78;;;13.20;52.60;;;;;;5141443;27;20031;-60
2023/03/18 00:12:33;;;;;;;12.15;7.65;;;13.00;57.20;;;;;;5123687;27;20034;-59
2023/03/18 00:14:59;;;;;;;16.42;8.32;;;13.10;60.70;;;;;;5123727;27;20046;-60
2023/03/18 00:17:25;;;;;;;14.65;8.45;;;13.00;64.00;;;;;;5141636;27;20039;-60
2023/03/18 00:19:51;;;;;;;13.75;7.75;;;13.00;68.70;;;;;;5106471;27;20031;-60
2023/03/18 00:22:18;;;;;;;12.95;7.82;;;12.80;74.20;;;;;;5141322;27;20126;-61
2023/03/18 00:24:44;;;;;;;11.95;7.45;;;12.80;79.50;;;;;;5141116;27;20031;-61
2023/03/18 00:27:10;;;;;;;15.52;8.75;;;12.80;83.10;;;;;;5141125;27;20129;-59
2023/03/18 00:29:36;;;;;;;13.60;7.70;;;12.80;84.70;;;;;;5106047;27;20466;-61
2023/03/18 00:32:02;;;;;;;12.93;8.00;;;12.80;87.90;;;;;;5141126;27;20043;-61
2023/03/18 00:34:28;;;;;;;13.82;8.13;;;12.70;90.50;;;;;;5141067;27;20041;-61
2023/03/18 00:36:55;;;;;;;12.82;8.15;;;12.70;91.30;;;;;;5141441;27;20383;-61
2023/03/18 00:39:27;;;;;;;12.13;8.18;;;12.80;91.30;;;;;;5140989;27;20027;-59
2023/03/18 00:41:55;;;;;;;14.73;8.68;;;12.90;91.20;;;;;;5122946;27;20430;-60
2023/03/18 00:44:21;;;;;;;17.25;9.25;;;12.70;93.20;;;;;;5122967;27;20063;-59
2023/03/18 00:46:47;;;;;;;15.88;9.35;;;12.60;95.20;;;;;;5123055;27;20303;-59
2023/03/18 00:49:14;;;;;;;18.38;9.70;;;12.60;96.60;;;;;;5140777;27;20032;-59
2023/03/18 00:51:43;;;;;;;14.32;9.40;;;12.50;98.50;;;;;;5122764;27;20039;-60
2023/03/18 00:54:11;;;;;;;16.75;9.25;;;12.50;99.90;;;;;;5140567;27;20119;-61
2023/03/18 00:56:38;;;;;;;15.13;8.70;;;12.50;99.90;;;;;;5122708;27;20072;-61
2023/03/18 00:59:06;;;;;;;14.10;9.32;;;12.50;99.90;;;;;;5141086;27;20031;-61
2023/03/18 01:01:32;;;;;;;15.07;9.13;;;12.50;99.90;;;;;;5122713;27;20377;-61
2023/03/18 01:03:59;;;;;;;16.48;9.27;;;12.60;99.90;;;;;;5122090;27;20030;-61
2023/03/18 01:06:30;;;;;;;15.25;8.85;;;12.50;99.90;;;;;;5122507;27;20383;-61
2023/03/18 01:08:57;;;;;;;14.57;9.32;;;12.50;99.90;;;;;;5140367;27;20027;-59
2023/03/18 01:11:24;;;;;;;21.42;9.77;;;12.40;99.90;;;;;;5139495;27;20133;-60
2023/03/18 01:13:51;;;;;;;19.63;10.10;;;12.40;99.90;;;;;;5140261;27;20027;-60
2023/03/18 01:16:18;;;;;;;15.48;8.70;;;12.40;99.90;;;;;;5140232;27;20058;-59
2023/03/18 01:18:44;;;;;;;17.08;8.95;;;12.40;99.90;;;;;;5140146;27;20019;-61
2023/03/18 01:21:10;;;;;;;16.50;8.88;;;12.40;99.90;;;;;;5140194;27;20035;-61
2023/03/18 01:23:42;;;;;;;;;;;12.30;99.90;;;;;;5106933;27;20031;-60
2023/03/18 01:26:09;;;;;;;14.63;8.80;;;12.30;99.90;;;;;;5122186;27;20280;-60
2023/03/18 01:28:38;;;;;;;13.27;8.98;;;12.30;99.90;;;;;;5122088;27;20306;-59
2023/03/18 01:31:06;;;;;;;16.65;9.50;;;12.20;99.90;;;;;;5105068;27;20031;-60
2023/03/18 01:33:34;;;;;;;17.08;9.02;;;12.30;99.90;;;;;;5122116;27;20353;-60
2023/03/18 01:36:02;;;;;;;19.42;9.30;;;12.30;99.90;;;;;;5139345;27;20392;-59
2023/03/18 01:38:30;;;;;;;16.88;9.52;;;12.20;99.90;;;;;;5139898;27;20080;-60
2023/03/18 01:41:00;;;;;;;12.82;9.10;;;12.20;99.90;;;;;;5121613;27;20053;-60
2023/03/18 01:43:32;;;;;;;13.80;8.35;;;12.30;99.90;;;;;;5121890;27;20106;-60
2023/03/18 01:46:00;;;;;;;15.77;9.50;;;12.30;99.90;;;;;;5121864;27;20164;-62
2023/03/18 01:48:38;;;;;;;17.48;9.25;;;12.30;99.90;;;;;;5121862;27;20038;-60
2023/03/18 01:51:10;;;;;;;16.30;9.35;;;12.30;99.90;;;;;;5121601;27;20084;-60
2023/03/18 01:53:44;;;;;;;17.10;9.50;;;12.30;99.90;;;;;;5121631;27;20404;-61
2023/03/18 01:56:11;;;;;;;11.45;8.55;;;12.30;99.90;;;;;;5139844;27;20106;-60
2023/03/18 01:58:44;;;;;;;15.65;8.85;;;12.30;99.90;;;;;;5104765;27;20115;-60
2023/03/18 02:01:22;;;;;;;16.13;8.55;;;12.30;99.90;;;;;;5138550;27;20030;-60
2023/03/18 02:03:50;;;;;;;12.85;8.88;;;12.30;99.90;;;;;;5139350;27;20034;-60
2023/03/18 02:06:17;;;;;;;15.82;8.75;;;12.40;99.90;;;;;;5121365;27;20037;-60
2023/03/18 02:08:49;;;;;;;15.73;8.68;;;12.40;99.90;;;;;;5105313;27;20467;-61
2023/03/18 02:11:15;;;;;;;14.98;8.90;;;12.40;99.90;;;;;;5121100;27;20367;-60
2023/03/18 02:13:44;;;;;;;13.07;8.20;;;12.40;99.90;;;;;;5120821;27;20027;-61
2023/03/18 02:16:24;;;;;;;15.55;8.10;;;12.50;99.90;;;;;;5120824;27;20268;-61
2023/03/18 02:18:58;;;;;;;17.35;8.43;;;12.50;99.90;;;;;;5138344;27;20118;-61
2023/03/18 02:21:51;;;;;;;14.23;8.50;;;12.40;99.90;;;;;;5138957;27;20039;-61
2023/03/18 02:24:33;;;;;;;10.68;8.00;;;12.30;99.90;;;;;;5121535;27;20111;-60
2023/03/18 02:27:20;;;;;;;24.48;8.18;;;12.30;99.90;;;;;;5121263;27;20058;-60
2023/03/18 02:29:48;;;;;;;12.88;7.90;;;12.30;99.90;;;;;;5120782;27;20027;-60
2023/03/18 02:32:19;;;;;;;13.30;8.82;;;12.30;99.90;;;;;;5120849;27;20031;-60
2023/03/18 02:34:46;;;;;;;14.05;8.52;;;12.20;99.90;;;;;;5086937;27;20119;-61
2023/03/18 02:37:12;;;;;;;14.18;8.07;;;12.30;99.90;;;;;;5120766;27;20031;-60
2023/03/18 02:39:40;;;;;;;17.38;8.23;;;12.30;99.90;;;;;;5103950;27;20023;-61
2023/03/18 02:42:09;;;;;;;15.25;8.77;;;12.30;99.90;;;;;;5121596;27;20058;-61
2023/03/18 02:44:41;;;;;;;11.68;9.18;;;12.30;99.90;;;;;;5120526;27;20054;-60
2023/03/18 02:47:30;;;;;;;16.02;9.10;;;12.30;99.90;;;;;;5137274;27;20067;-60
2023/03/18 02:49:56;;;;;;;16.08;9.68;;;12.30;99.90;;;;;;5103603;27;20041;-60
2023/03/18 02:52:22;;;;;;;18.42;10.00;;;12.30;99.90;;;;;;5137680;27;20333;-61
2023/03/18 02:54:48;;;;;;;18.05;10.65;;;12.20;99.90;;;;;;5103472;27;20391;-60
2023/03/18 02:57:14;;;;;;;19.83;10.82;;;12.10;99.90;;;;;;5103553;27;20031;-60
2023/03/18 02:59:44;;;;;;;17.10;10.68;;;12.10;99.90;;;;;;5104089;27;20038;-61
2023/03/18 03:02:10;;;;;;;17.35;10.98;;;12.10;99.90;;;;;;5138577;27;20269;-60
2023/03/18 03:04:37;;;;;;;19.00;11.93;;;12.10;99.90;;;;;;5103372;27;20126;-61
2023/03/18 03:07:03;;;;;;;21.45;13.00;;;12.10;99.90;;;;;;5138197;27;20407;-60
2023/03/18 03:09:43;;;;;;;19.83;12.32;;;12.00;99.90;;;;;;5120200;27;20030;-60
2023/03/18 03:12:09;;;;;;;19.67;12.40;;;12.00;99.90;;;;;;5137457;27;20391;-60
2023/03/18 03:14:40;;;;;;;22.33;13.10;;;12.00;99.90;;;;;;5138407;27;20023;-60
2023/03/18 03:17:06;;;;;;;18.42;13.88;;;12.00;99.90;;;;;;5138564;27;20410;-61
2023/03/18 03:19:32;;;;;;;18.80;12.95;;;12.00;99.90;;;;;;5137992;27;20058;-60
2023/03/18 03:21:59;;;;;;;19.02;13.75;;;12.00;99.90;;;;;;5154517;27;20348;-60
2023/03/18 03:24:25;;;;;;;19.42;13.98;;;11.90;99.90;;;;;;5137941;27;20019;-61
2023/03/18 03:26:51;;;;;;;20.90;14.32;;;11.90;99.90;;;;;;5137754;27;20031;-60
2023/03/18 03:29:17;;;;;;;23.50;14.90;;;11.90;99.90;;;;;;5137766;27;20095;-61
2023/03/18 03:31:43;;;;;;;24.20;15.93;;;11.80;99.90;;;;;;5138456;28;20103;-61
2023/03/18 03:34:09;;;;;;;26.15;16.70;;;11.90;99.90;;;;;;5137914;28;20059;-62
2023/03/18 03:36:35;;;;;;;20.63;15.60;;;11.80;99.90;;;;;;5137881;28;20027;-61
2023/03/18 03:39:02;;;;;;;21.75;16.13;;;11.70;99.90;;;;;;5137818;28;20345;-61
2023/03/18 03:41:28;;;;;;;26.23;16.67;;;11.70;99.90;;;;;;5119655;28;20054;-61
2023/03/18 03:43:54;;;;;;;27.35;16.63;;;11.60;99.90;;;;;;5137776;28;20126;-61
2023/03/18 03:46:20;;;;;;;23.98;17.08;;;11.60;99.90;;;;;;5137699;28;20031;-61
2023/03/18 03:48:46;;;;;;;26.58;17.17;;;11.60;99.90;;;;;;5102901;28;20049;-61
2023/03/18 03:51:16;;;;;;;23.45;16.10;;;11.60;99.90;;;;;;5102817;28;20031;-60
2023/03/18 03:53:43;;;;;;;24.27;16.20;;;11.60;99.90;;;;;;5119800;28;20087;-59
2023/03/18 03:56:10;;;;;;;22.42;15.52;;;11.60;99.90;;;;;;5102976;28;20023;-60
2023/03/18 03:58:36;;;;;;;24.00;15.68;;;11.60;99.90;;;;;;5102910;28;20345;-59
2023/03/18 04:01:05;;;;;;;24.13;15.20;;;11.40;99.90;;;;;;5119668;28;20027;-60
2023/03/18 04:03:32;;;;;;;20.23;14.93;;;11.30;99.90;;;;;;5103188;28;20134;-61
2023/03/18 04:05:58;;;;;;;23.83;15.60;;;11.30;99.90;;;;;;5102751;28;20299;-60
2023/03/18 04:08:27;;;;;;;23.63;15.55;;;11.20;99.90;;;;;;5119943;28;20047;-61
2023/03/18 04:10:53;;;;;;;22.13;15.50;;;11.20;99.90;;;;;;5153939;27;20031;-60
2023/03/18 04:13:19;;;;;;;23.42;15.80;;;11.10;99.90;;;;;;5119755;28;20395;-60
2023/03/18 04:15:46;;;;;;;23.23;15.18;;;11.10;99.90;;;;;;5137395;28;20024;-61
2023/03/18 04:18:16;;;;;;;22.67;15.82;;;11.00;99.90;;;;;;5120439;28;20058;-61
2023/03/18 04:20:43;;;;;;;22.48;14.68;;;11.00;99.90;;;;;;5137398;28;20023;-61
2023/03/18 04:23:32;;;;;;;23.65;15.18;;;11.00;99.90;;;;;;5114833;28;20064;-61
2023/03/18 04:25:58;;;;;;;21.67;14.60;;;11.00;99.90;;;;;;5119477;28;20039;-61
2023/03/18 04:28:24;;;;;;;22.25;14.48;;;10.90;99.90;;;;;;5119475;28;20035;-60
2023/03/18 04:30:50;;;;;;;19.67;14.40;;;10.90;99.90;;;;;;5137221;28;20027;-60
2023/03/18 04:33:18;;;;;;;20.58;14.38;;;10.90;99.90;;;;;;5119431;28;20321;-60
2023/03/18 04:35:44;;;;;;;23.10;14.65;;;10.90;99.90;;;;;;5119297;28;20035;-60
2023/03/18 04:38:15;;;;;;;20.23;14.18;;;10.80;99.90;;;;;;5121121;27;20042;-60
2023/03/18 04:40:41;;;;;;;20.33;13.90;;;10.70;99.90;;;;;;5139898;27;20167;-60
2023/03/18 04:43:08;;;;;;;22.35;14.55;;;10.80;99.90;;;;;;5122998;27;20412;-60
2023/03/18 04:45:34;;;;;;;21.23;14.52;;;10.80;99.90;;;;;;5122974;27;20039;-60
2023/03/18 04:48:03;;;;;;;24.17;15.45;;;10.80;99.90;;;;;;5157411;27;20031;-61
2023/03/18 04:50:33;;;;;;;23.80;15.10;;;10.80;99.90;;;;;;5122919;27;20104;-60
2023/03/18 04:52:59;;;;;;;19.20;14.07;;;10.80;99.90;;;;;;5123204;27;20027;-59
2023/03/18 04:55:28;;;;;;;23.27;16.33;;;10.70;99.90;;;;;;5122447;27;20031;-60
2023/03/18 04:57:55;;;;;;;22.33;14.55;;;10.70;99.90;;;;;;5122317;27;20059;-60
2023/03/18 05:00:23;;;;;;;20.77;14.98;;;10.60;99.90;;;;;;5157390;27;20053;-61
2023/03/18 05:02:55;;;;;;;22.13;15.10;;;10.60;99.90;;;;;;5122624;27;20035;-61
2023/03/18 05:05:24;;;;;;;23.90;14.52;;;10.60;99.90;;;;;;5122453;27;20035;-61
2023/03/18 05:07:51;;;;;;;22.95;14.80;;;10.50;99.90;;;;;;5140367;27;20068;-61
2023/03/18 05:10:19;;;;;;;22.80;14.18;;;10.50;99.90;;;;;;5122438;27;20039;-61
2023/03/18 05:12:45;;;;;;;22.27;14.35;;;10.50;99.90;;;;;;5122459;27;20312;-61
2023/03/18 05:15:13;;;;;;;24.10;14.23;;;10.50;99.90;;;;;;5139447;27;20051;-61
2023/03/18 05:17:44;;;;;;;21.13;14.10;;;10.60;99.90;;;;;;5122584;27;20027;-61
2023/03/18 05:20:12;;;;;;;21.30;13.88;;;10.50;99.90;;;;;;5122803;27;20035;-61
2023/03/18 05:22:39;;;;;;;23.27;14.50;;;10.50;99.90;;;;;;5122164;27;20345;-61
2023/03/18 05:25:14;;;;;;;22.35;14.10;;;10.50;99.90;;;;;;5106627;27;20031;-61
2023/03/18 05:27:41;;;;;;;20.58;13.75;;;10.50;99.90;;;;;;5105351;27;20185;-62
2023/03/18 05:30:18;;;;;;;22.83;14.82;;;10.40;99.90;;;;;;5121906;27;20035;-62
2023/03/18 05:32:49;;;;;;;25.20;15.25;;;10.40;99.90;;;;;;5122117;27;20084;-62
2023/03/18 05:35:18;;;;;;;23.33;15.13;;;10.40;99.90;;;;;;5121898;27;20126;-62
2023/03/18 05:37:47;;;;;;;23.45;14.68;;;10.40;99.90;;;;;;5122780;27;20441;-63
2023/03/18 05:40:13;;;;;;;21.83;14.70;;;10.30;99.90;;;;;;5139830;27;20062;-61
2023/03/18 05:42:45;;;;;;;23.38;15.07;;;10.30;99.90;;;;;;5121821;27;20299;-61
2023/03/18 05:45:11;;;;;;;20.38;14.80;;;10.30;99.90;;;;;;5138734;27;20031;-61
2023/03/18 05:47:46;;;;;;;22.33;15.05;;;10.20;99.90;;;;;;5106383;27;20038;-61
2023/03/18 05:50:13;;;;;;;23.20;14.05;;;10.20;99.90;;;;;;5155922;27;20479;-61
2023/03/18 05:52:40;;;;;;;22.75;14.35;;;10.20;99.90;;;;;;5121447;27;20321;-60
2023/03/18 05:55:14;;;;;;;23.05;14.68;;;10.20;99.90;;;;;;5121445;27;20035;-60
2023/03/18 05:57:42;;;;;;;27.13;16.25;;;10.10;99.90;;;;;;5121550;27;20035;-60
2023/03/18 06:00:09;;;;;;;24.23;15.55;;;10.10;99.90;;;;;;5121395;27;20122;-61
2023/03/18 06:02:41;;;;;;;24.60;15.05;;;10.10;99.90;;;;;;5122716;27;20039;-61
2023/03/18 06:05:11;;;;;;;27.35;16.27;;;10.10;99.90;;;;;;5139309;27;20439;-61
2023/03/18 06:07:37;;;;;;;21.35;14.88;;;10.10;99.90;;;;;;5121412;27;20031;-61
2023/03/18 06:10:04;;;;;;;22.52;15.07;;;10.10;99.90;;;;;;5138359;27;20121;-61
2023/03/18 06:12:30;;;;;;;22.35;15.60;;;10.10;99.90;;;;;;5121269;27;20084;-61
2023/03/18 06:14:57;;;;;;;22.80;15.38;;;10.10;99.90;;;;;;5139303;27;20314;-62
2023/03/18 06:17:23;;;;;;;24.85;15.55;;;10.20;99.90;;;;;;5139031;27;20075;-61
2023/03/18 06:19:49;;;;;;;20.73;15.32;;;10.20;99.90;;;;;;5155620;27;20031;-62
2023/03/18 06:22:15;;;;;;;19.88;15.05;;;10.20;99.90;;;;;;5139358;27;20391;-62
2023/03/18 06:24:42;;;;;;;25.73;16.40;;;10.20;99.90;;;;;;5155397;27;20031;-65
2023/03/18 06:27:09;;;;;;;22.55;14.40;;;10.20;99.90;;;;;;5121022;27;20035;-62
2023/03/18 06:29:36;;;;;;;23.58;15.55;;;10.20;99.90;;;;;;5138846;27;20092;-62
2023/03/18 06:32:09;;;;;;;24.50;15.38;;;10.30;99.90;;;;;;5121018;27;20319;-62
2023/03/18 06:34:35;;;;;;;22.60;15.98;;;10.40;99.90;;;;;;5121108;27;20027;-61
2023/03/18 06:37:03;;;;;;;22.05;15.15;;;10.40;99.90;;;;;;5120674;27;20027;-63
2023/03/18 06:39:29;;;;;;;23.83;15.70;;;10.40;99.90;;;;;;5120855;27;20035;-64
2023/03/18 06:41:57;;;;;;;20.30;13.65;;;10.40;99.90;;;;;;5120503;27;20138;-62
2023/03/18 06:44:30;;;;;;;21.10;14.45;;;10.40;99.90;;;;;;5120615;27;20315;-61
2023/03/18 06:47:03;;;;;;;18.73;14.23;;;10.40;99.90;;;;;;5155028;27;20035;-60
2023/03/18 06:49:33;;;;;;;20.23;13.45;;;10.50;99.90;;;;;;5120902;27;20118;-62
2023/03/18 06:52:08;;;;;;;22.13;14.07;;;10.60;99.90;;;;;;5120447;27;20035;-62
2023/03/18 06:54:34;;;;;;;18.65;13.93;;;10.70;99.90;;;;;;5137568;27;20039;-62
2023/03/18 06:57:00;;;;;;;18.90;14.40;;;10.70;99.90;;;;;;5137718;27;20349;-62
2023/03/18 06:59:27;;;;;;;19.13;13.48;;;10.70;99.90;;;;;;5120277;27;20031;-61
2023/03/18 07:01:53;;;;;;;18.02;13.30;;;10.70;99.90;;;;;;5120285;27;20129;-62
2023/03/18 07:04:22;;;;;;;20.00;14.80;;;10.80;99.90;;;;;;5120302;27;20038;-61
2023/03/18 07:06:49;;;;;;;21.20;13.27;;;11.00;99.90;;;;;;5103329;27;20092;-61
2023/03/18 07:09:15;;;;;;;22.13;13.57;;;11.20;99.90;;;;;;5138285;27;20024;-61
2023/03/18 07:11:47;;;;;;;18.25;13.13;;;11.50;99.90;;;;;;5120124;27;20035;-62
2023/03/18 07:14:18;;;;;;;19.40;13.20;;;11.70;99.90;;;;;;5120077;27;20030;-60
2023/03/18 07:16:44;;;;;;;16.60;12.32;;;11.80;99.90;;;;;;5120151;27;20039;-60
2023/03/18 07:19:11;;;;;;;17.70;12.82;;;11.80;99.90;;;;;;5138257;27;20031;-62
2023/03/18 07:21:38;;;;;;;17.67;12.13;;;11.80;99.90;;;;;;5103052;27;20027;-62
2023/03/18 07:24:04;;;;;;;16.52;12.00;;;11.70;99.90;;;;;;5120328;27;20042;-62
2023/03/18 07:26:30;;;;;;;14.15;11.70;;;11.60;99.90;;;;;;5119935;28;20031;-62
2023/03/18 07:28:56;;;;;;;14.80;11.77;;;11.60;99.90;;;;;;5120266;28;20038;-61
2023/03/18 07:31:23;;;;;;;18.30;12.88;;;11.50;99.90;;;;;;5119881;28;20165;-63
2023/03/18 07:33:50;;;;;;;16.13;12.10;;;11.50;99.90;;;;;;5120315;28;20059;-63
2023/03/18 07:36:16;;;;;;;18.08;11.85;;;11.50;99.90;;;;;;5120014;28;20055;-62
2023/03/18 07:38:42;;;;;;;17.35;12.52;;;11.50;99.90;;;;;;5137678;28;20106;-62
2023/03/18 07:41:08;;;;;;;19.67;12.30;;;11.60;99.90;;;;;;5137253;28;20126;-66
2023/03/18 07:43:34;;;;;;;16.13;11.13;;;11.60;99.90;;;;;;5137801;28;20039;-61
2023/03/18 07:45:59;;;;;;;15.82;11.88;;;11.70;99.90;;;;;;5137738;28;20299;-61
2023/03/18 07:48:25;;;;;;;18.75;12.27;;;11.70;99.90;;;;;;5137705;28;20418;-61
2023/03/18 07:50:51;;;;;;;17.25;11.80;;;11.70;99.90;;;;;;5137662;28;20027;-63
2023/03/18 07:53:17;;;;;;;19.45;10.48;;;11.90;99.90;;;;;;5102836;28;20054;-62
2023/03/18 07:55:43;;;;;;;15.38;10.98;;;11.90;99.90;;;;;;5137603;28;20023;-62
2023/03/18 07:58:09;;;;;;;13.52;10.77;;;12.00;99.90;;;;;;5138051;28;20080;-62
2023/03/18 08:00:35;;;;;;;13.07;10.05;;;12.20;99.90;;;;;;5137614;28;20039;-62
2023/03/18 08:03:01;;;;;;;13.02;9.68;;;12.40;99.90;;;;;;5137747;28;20024;-62
2023/03/18 08:05:27;;;;;;;13.68;10.23;;;12.40;99.90;;;;;;5137610;28;20039;-62
2023/03/18 08:07:55;;;;;;;15.65;10.15;;;12.50;99.90;;;;;;5137590;28;20321;-62
2023/03/18 08:10:21;;;;;;;12.40;9.18;;;12.60;99.90;;;;;;5137695;28;20042;-61
2023/03/18 08:12:47;;;;;;;12.90;9.32;;;12.70;99.90;;;;;;5121017;27;20403;-62
2023/03/18 08:15:13;;;;;;;11.13;8.82;;;12.80;99.90;;;;;;5123486;27;20027;-60
2023/03/18 08:17:40;;;;;;;13.90;8.65;;;12.90;99.90;;;;;;5141457;27;20123;-61
2023/03/18 08:20:06;;;;;;;13.50;8.93;;;13.00;99.90;;;;;;5123840;27;20437;-61
2023/03/18 08:22:32;;;;;;;10.52;8.18;;;13.10;99.90;;;;;;5106376;27;20084;-63
2023/03/18 08:24:58;;;;;;;11.50;8.25;;;13.30;99.90;;;;;;5141908;27;20027;-62
2023/03/18 08:27:24;;;;;;;11.02;8.10;;;13.40;99.90;;;;;;5141372;27;20202;-63
2023/03/18 08:29:50;;;;;;;8.52;7.47;;;13.60;99.90;;;;;;5141217;27;20080;-61
2023/03/18 08:32:16;;;;;;;9.73;7.18;;;13.60;99.90;;;;;;5123491;27;20027;-62
2023/03/18 08:34:43;;;;;;;9.23;7.40;;;13.60;99.90;;;;;;5140985;27;20039;-63
2023/03/18 08:37:09;;;;;;;10.40;7.18;;;13.40;99.90;;;;;;5123147;27;20023;-61
2023/03/18 08:39:35;;;;;;;8.45;6.63;;;13.30;99.90;;;;;;5141087;27;20027;-63
2023/03/18 08:42:04;;;;;;;7.97;5.75;;;13.20;99.90;;;;;;5123148;27;20047;-62
2023/03/18 08:44:31;;;;;;;10.48;6.10;;;13.30;99.90;;;;;;5141119;27;20031;-61
2023/03/18 08:46:57;;;;;;;7.97;6.00;;;13.40;99.90;;;;;;5140825;27;20042;-61
2023/03/18 08:49:24;;;;;;;7.65;6.07;;;13.40;99.90;;;;;;5140833;27;20285;-62
2023/03/18 08:51:51;;;;;;;8.57;5.57;;;13.30;99.90;;;;;;5140699;27;20047;-62
2023/03/18 08:54:18;;;;;;;6.07;5.45;;;13.30;99.90;;;;;;5122939;27;20039;-63
2023/03/18 08:56:43;;;;;;;7.20;5.15;;;13.40;99.90;;;;;;5122732;27;20119;-62
2023/03/18 08:59:09;;;;;;;7.93;5.53;;;13.40;99.90;;;;;;5140537;27;20106;-62
2023/03/18 09:01:36;;;;;;;5.90;5.07;;;13.60;99.90;;;;;;5140606;27;20062;-61
2023/03/18 09:04:02;;;;;;;7.82;4.85;;;13.60;99.70;;;;;;5140563;27;20088;-62
2023/03/18 09:06:29;;;;;;;6.07;4.45;;;13.60;98.90;;;;;;5140951;27;20035;-61
2023/03/18 09:08:55;;;;;;;6.65;4.35;;;13.60;98.50;;;;;;5140442;27;20106;-62
2023/03/18 09:11:21;;;;;;;7.50;4.35;;;13.70;97.60;;;;;;5140247;27;20119;-62
2023/03/18 09:13:47;;;;;;;6.43;4.65;;;13.80;96.90;;;;;;5122318;27;20023;-61
2023/03/18 09:16:13;;;;;;;7.22;4.50;;;14.10;96.40;;;;;;5122404;27;20038;-62
2023/03/18 09:18:39;;;;;;;4.70;4.25;;;14.10;93.10;;;;;;5140723;27;20030;-61
2023/03/18 09:21:05;;;;;;;7.00;4.10;;;14.00;93.70;;;;;;5140115;27;20050;-61
2023/03/18 09:23:31;;;;;;;7.40;4.10;;;14.00;94.20;;;;;;5121791;27;20035;-61
2023/03/18 09:25:58;;;;;;;5.70;3.97;;;13.90;94.60;;;;;;5139993;27;20042;-61
2023/03/18 09:28:24;;;;;;;6.75;3.85;;;13.80;95.00;;;;;;5140318;27;20387;-61
2023/03/18 09:30:51;;;;;;;6.35;3.95;;;13.80;94.70;;;;;;5139850;27;20055;-62
2023/03/18 09:33:17;;;;;;;5.90;3.80;;;13.80;94.10;;;;;;5139885;27;20019;-61
2023/03/18 09:35:43;;;;;;;5.22;3.63;;;13.90;93.00;;;;;;5139658;27;20114;-62
2023/03/18 09:38:18;;;;;;;4.78;3.75;;;13.90;93.90;;;;;;5139718;27;20104;-61
2023/03/18 09:41:23;;;;;;;4.38;3.58;;;13.90;93.70;;;;;;5139575;27;20047;-61
2023/03/18 09:44:13;;;;;;;5.35;3.70;;;14.00;93.10;;;;;;5139837;27;20034;-60
2023/03/18 09:46:42;;;;;;;5.78;4.10;;;14.20;92.00;;;;;;5121872;27;20024;-60
2023/03/18 09:49:15;;;;;;;6.85;4.10;;;14.20;89.50;;;;;;5139445;27;20035;-58
2023/03/18 09:52:20;;;;;;;4.78;4.10;;;14.10;90.40;;;;;;5139675;27;20038;-61
2023/03/18 09:55:09;;;;;;;8.57;4.05;;;13.80;92.80;;;;;;5121563;27;20023;-60
2023/03/18 09:57:38;;;;;;;4.28;3.88;;;13.80;93.50;;;;;;5130807;27;20046;-61
2023/03/18 10:00:16;;;;;;;4.85;4.10;;;13.70;93.50;;;;;;5139185;27;20102;-60
2023/03/18 10:03:00;;;;;;;4.63;3.67;;;13.60;95.20;;;;;;5139434;27;20080;-60
2023/03/18 10:05:34;;;;;;;4.38;3.92;;;13.60;94.40;;;;;;5139272;27;20047;-61
2023/03/18 10:08:08;;;;;;;6.03;4.28;;;13.60;95.40;;;;;;5139340;27;20030;-60
2023/03/18 10:10:41;;;;;;;5.53;4.00;;;13.60;95.20;;;;;;5139172;27;20280;-61
2023/03/18 10:13:27;;;;;;;4.80;3.75;;;13.70;95.00;;;;;;5138842;27;20088;-60
2023/03/18 10:15:56;;;;;;;5.95;3.65;;;14.00;92.50;;;;;;5139118;27;20058;-60
2023/03/18 10:18:26;;;;;;;5.18;3.50;;;14.20;86.60;;;;;;5138917;27;20314;-61
2023/03/18 10:21:10;;;;;;;4.80;3.60;;;14.50;83.80;;;;;;5138883;27;20038;-61
2023/03/18 10:23:52;;;;;;;3.80;3.42;;;14.60;81.50;;;;;;5138873;27;20019;-62
2023/03/18 10:26:39;;;;;;;6.07;3.33;;;14.80;74.30;;;;;;5138907;27;20047;-62
2023/03/18 10:29:28;;;;;;;6.78;3.58;;;14.90;73.70;;;;;;5138825;27;20023;-61
2023/03/18 10:32:01;;;;;;;4.63;3.22;;;14.30;75.80;;;;;;5138766;27;20035;-60
2023/03/18 10:34:56;;;;;;;4.65;3.38;;;13.90;90.00;;;;;;5138716;27;20024;-61
2023/03/18 10:37:58;;;;;;;4.35;3.25;;;13.70;91.40;;;;;;5139135;27;20066;-61
2023/03/18 10:40:33;;;;;;;5.07;3.50;;;13.70;91.90;;;;;;5138237;27;20104;-61
2023/03/18 10:43:01;;;;;;;5.80;3.15;;;13.70;92.00;;;;;;5120526;27;20042;-62
2023/03/18 10:45:30;;;;;;;5.90;3.67;;;13.80;92.40;;;;;;5103866;27;20110;-61
2023/03/18 10:48:03;;;;;;;5.88;3.35;;;13.80;91.30;;;;;;5120436;27;20433;-61
2023/03/18 10:50:30;;;;;;;4.78;3.65;;;13.70;91.90;;;;;;5138106;27;20384;-60
2023/03/18 10:52:57;;;;;;;4.40;3.10;;;13.70;93.10;;;;;;5138186;27;20046;-61
2023/03/18 10:55:28;;;;;;;4.57;3.22;;;13.80;92.90;;;;;;5138246;27;20180;-60
2023/03/18 10:57:54;;;;;;;5.72;3.35;;;13.80;91.90;;;;;;5120202;27;20033;-60
2023/03/18 11:00:32;;;;;;;6.90;3.17;;;14.00;91.60;;;;;;5120389;27;20343;-60
2023/03/18 11:02:59;;;;;;;7.03;3.80;;;14.00;90.90;;;;;;5120361;27;20031;-60
2023/03/18 11:05:36;;;;;;;4.47;3.20;;;14.10;90.30;;;;;;5120430;27;20300;-62
2023/03/18 11:08:05;;;;;;;4.55;3.17;;;13.90;90.70;;;;;;5120376;27;20110;-61
2023/03/18 11:10:38;;;;;;;3.95;3.30;;;13.90;91.70;;;;;;5154421;27;20475;-62
2023/03/18 11:13:05;;;;;;;4.85;3.30;;;13.90;91.30;;;;;;5138146;27;20387;-62
2023/03/18 11:15:41;;;;;;;4.70;2.88;;;13.90;90.80;;;;;;5138028;27;20027;-61
2023/03/18 11:18:15;;;;;;;4.35;3.05;;;14.00;90.70;;;;;;5138215;27;20028;-62
2023/03/18 11:20:43;;;;;;;4.03;2.95;;;14.10;90.10;;;;;;5138012;27;20295;-62
2023/03/18 11:23:55;;;;;;;5.00;2.92;;;14.40;83.00;;;;;;5120560;27;20395;-61
2023/03/18 11:26:26;;;;;;;4.15;2.47;;;14.50;79.80;;;;;;5137857;27;20079;-62
2023/03/18 11:28:57;;;;;;;4.00;2.53;;;14.70;72.50;;;;;;5120140;27;20073;-63
2023/03/18 11:31:23;;;;;;;3.80;2.45;;;14.80;68.90;;;;;;5137626;27;20304;-62
2023/03/18 11:33:55;;;;;;;5.43;2.78;;;14.80;71.10;;;;;;5120018;28;20030;-63
2023/03/18 11:36:23;;;;;;;3.33;2.30;;;14.60;69.70;;;;;;5137633;28;20337;-61
2023/03/18 11:38:57;;;;;;;4.60;2.33;;;14.90;70.40;;;;;;5137645;28;20023;-61
2023/03/18 11:41:26;;;;;;;4.28;2.90;;;15.30;59.10;;;;;;5137341;28;20107;-62
2023/03/18 11:44:14;;;;;;;4.05;2.85;;;15.60;51.40;;;;;;5138128;28;20062;-60
2023/03/18 11:46:57;;;;;;;3.13;2.80;;;15.80;47.50;;;;;;5139168;27;20027;-61
2023/03/18 11:49:27;;;;;;;3.75;2.55;;;15.70;47.60;;;;;;5124052;27;20058;-62
2023/03/18 11:52:11;;;;;;;6.20;2.78;;;15.80;51.80;;;;;;5124030;27;20475;-61
2023/03/18 11:55:03;;;;;;;3.50;1.88;;;15.80;50.00;;;;;;5141924;27;20404;-62
2023/03/18 11:57:49;;;;;;;3.47;1.88;;;15.50;41.20;;;;;;5141848;27;20027;-61
2023/03/18 12:00:42;;;;;;;2.42;1.70;;;15.50;42.40;;;;;;5141690;27;20023;-61
2023/03/18 12:03:34;;;;;;;2.40;1.90;;;15.90;31.70;;;;;;5132906;27;20046;-62
2023/03/18 12:06:39;;;;;;;2.83;1.57;;;15.80;36.20;;;;;;5141692;27;20031;-61
2023/03/18 12:09:48;;;;;;;2.83;1.50;;;17.10;7.40;;;;;;5058923;28;20076;-61
2023/03/18 12:12:38;;;;;;;4.30;1.55;;;18.10;1.00;;;;;;5042046;28;20057;-61
2023/03/18 12:15:10;;;;;;;2.40;1.50;;;18.20;1.00;;;;;;5058799;28;20432;-61
2023/03/18 12:18:04;;;;;;;4.28;1.90;;;17.70;1.00;;;;;;5114928;27;20050;-61
2023/03/18 12:20:39;;;;;;;3.00;1.58;;;16.90;1.00;;;;;;5133507;27;20069;-62
2023/03/18 12:23:17;;;;;;;2.85;1.55;;;16.30;1.00;;;;;;5141261;27;20051;-60
2023/03/18 12:26:04;;;;;;;2.75;1.92;;;15.90;13.00;;;;;;5141434;27;20413;-60
2023/03/18 12:28:50;;;;;;;2.92;1.98;;;16.00;19.10;;;;;;5141226;27;20119;-61
2023/03/18 12:31:49;;;;;;;3.25;2.20;;;16.90;1.00;;;;;;5140912;27;20053;-60
2023/03/18 12:34:39;;;;;;;4.63;2.10;;;16.90;1.00;;;;;;5141592;27;20042;-60
2023/03/18 12:37:30;;;;;;;4.65;1.80;;;16.90;1.00;;;;;;5141081;27;20027;-60
2023/03/18 12:40:06;;;;;;;3.45;1.80;;;17.70;1.00;;;;;;5123042;27;20053;-60
2023/03/18 12:43:16;;;;;;;2.60;1.85;;;18.70;1.00;;;;;;5106141;27;20041;-60
2023/03/18 12:45:47;;;;;;;3.53;1.83;;;19.10;1.00;;;;;;5140961;27;20031;-60
2023/03/18 12:48:20;;;;;;;5.32;1.60;;;19.00;1.00;;;;;;5140977;27;20030;-60
2023/03/18 12:50:52;;;;;;;4.88;1.80;;;17.90;1.00;;;;;;5140757;27;20043;-61
2023/03/18 12:53:24;;;;;;;3.58;1.40;;;18.00;1.00;;;;;;5140859;27;20084;-60